Tiempo atmosférico en la estación meteorológica de Agulo, Santa Cruz de Tenerife (765 m.)



Fecha
DESCASC
Temp. máxima en grados centígrados (hora)
DESCASC
Temp. mínima en grados centígrados (hora)
DESCASC
Temp. media en grados centígrados
DESCASC
Racha de viento máxima en m/sg (hora)
DESCASC
Velocidad máxima media en intervalos de 10 minutos(hora)
DESCASC
Precipitaciones diarias en mm
DESCASC
Precipitaciones de 00:00 a 06:00 en mm
DESCASC
Precipitaciones de 06:00 a 12:00 en mm
DESCASC
Precipitaciones de 12:00 a 18:00 en mm
DESCASC
Precipitaciones de 18:00 a 24:00 en mm
DESCASC
29-10-2020 18.5 (13:10) 13.9 (02:20) 16.2 5.56 (23:59) 2.22 (09:50) 0 0 0 0 0
28-10-2020 -- (--) -- (--) -- 7.22 (15:30) 2.78 (01:50) 0.8 0.8 0 0 0
27-10-2020 18.3 (15:10) 14.6 (00:00) 16.4 6.39 (12:10) 2.78 (14:40) 0 0 0 0 0
26-10-2020 18 (13:40) 14.3 (00:00) 16.2 5.28 (12:10) 2.22 (15:40) 0 0 0 0 0
25-10-2020 16.6 (13:50) 13.8 (00:00) 15.2 5.56 (10:10) 1.67 (05:30) 0 0 0 0 0
24-10-2020 18 (15:10) 13.3 (00:00) 15.7 6.94 (09:00) 2.78 (06:40) 0 0 0 0 0
23-10-2020 18.8 (16:40) 13.4 (00:00) 16.1 8.06 (20:20) 3.06 (20:00) 0 0 0 0 0
22-10-2020 18.2 (16:10) 13.6 (00:00) 15.9 8.33 (04:30) 2.78 (03:20) 1.8 1.8 0 0 0
21-10-2020 19.3 (13:30) 14.3 (00:00) 16.8 13.61 (03:20) 8.06 (08:50) 44.4 0 0 15.6 28.8
20-10-2020 23 (03:00) 15.8 (00:00) 19.4 20.56 (12:10) 12.22 (12:50) 6.6 0 0 6.6 0
19-10-2020 26 (17:40) 18.5 (00:00) 22.3 9.17 (12:50) 5.56 (13:00) 0 0 0 0 0
18-10-2020 23.7 (18:00) 14.7 (00:00) 19.2 7.5 (23:50) 3.61 (23:40) 0 0 0 0 0
17-10-2020 19.7 (12:20) 14.4 (00:00) 17.1 4.72 (08:30) 2.5 (12:50) 0 0 0 0 0
16-10-2020 21.9 (13:10) 15.2 (00:00) 18.5 4.72 (21:30) 3.61 (08:20) 5.4 0 0 2.2 3.2
15-10-2020 26.9 (12:20) 16.2 (00:00) 21.6 6.67 (07:00) 4.17 (06:20) 0 0 0 0 0
14-10-2020 -- (--) -- (--) -- 8.61 (07:00) 5.83 (04:40) 0 0 0 0 0
13-10-2020 -- (--) -- (--) -- 15.28 (13:20) 7.22 (13:20) 0 0 0 0 0
12-10-2020 33 (14:40) 15.6 (00:00) 24.3 11.94 (18:40) 7.78 (19:10) 0 0 0 0 0
11-10-2020 17.9 (14:00) 15.9 (00:00) 16.9 7.22 (02:10) 2.78 (03:30) 0 0 0 0 0
10-10-2020 18.5 (11:50) 15.9 (00:00) 17.2 7.5 (20:00) 2.5 (03:30) 0 0 0 0 0
09-10-2020 20.6 (17:20) 16.6 (00:00) 18.6 6.67 (22:10) 2.22 (10:50) 0.2 0 0.2 0 0
08-10-2020 -- (--) -- (--) -- 4.72 (11:30) 2.78 (12:50) 0 0 0 0 0
07-10-2020 26.1 (15:00) 17.4 (00:00) 21.8 5.28 (14:10) 3.61 (04:10) 0 0 0 0 0
06-10-2020 18.6 (23:50) 15.9 (00:00) 17.3 6.39 (06:20) 3.89 (02:10) 18.8 1.4 15.2 2 0.2
05-10-2020 21.3 (13:50) 16.3 (00:00) 18.8 7.22 (03:50) 3.33 (11:30) 0.2 0 0 0 0.2
04-10-2020 17.9 (12:50) 15.8 (00:00) 16.8 8.33 (09:10) 4.17 (14:50) 2.2 0.6 1.6 0 0
03-10-2020 -- (--) -- (--) -- 7.78 (01:00) 3.06 (01:00) 2.2 0 0.6 0.4 1.2
02-10-2020 21 (14:00) 15 (00:00) 18 7.78 (21:00) 2.78 (22:30) 1.4 1 0 0 0.4
01-10-2020 -- (--) -- (--) -- -- (--) -- (--) -- 0 -- -- --

Gráficas

Temp. máximas Temp. mínimas Temp. medias Precipitaciones Rachas de viento máximas Velocidades máximas media en intervalos de 10 minutos

Datos horarios

Fecha y hora oficial Temperatura (ºC) Velocidad del viento (km/h) Dirección del viento Racha (km/h) Dirección de racha Precipitación (mm) Presión (hPa) Tendencia (hPa) Humedad (%)
2020-10-30 23:00:00 15.4 8 Nordeste 11 Nordeste 0 -- -- 98
2020-10-30 22:00:00 15.6 2 Sudoeste 8 Norte 0 -- -- 98
2020-10-30 21:00:00 15.8 3 Norte 14 Norte 0 -- -- 97
2020-10-30 20:00:00 15.9 2 Este 9 Norte 0 -- -- 97
2020-10-30 19:00:00 15.6 2 Nordeste 11 Nordeste 0 -- -- 95
2020-10-30 18:00:00 16.4 4 Norte 8 Nordeste 0 -- -- 92
2020-10-30 17:00:00 17.5 4 Este 10 Este 0 -- -- 90
2020-10-30 16:00:00 17.5 4 Este 12 Este 0 -- -- 90
2020-10-30 15:00:00 17.8 3 Sudeste 13 Este 0 -- -- 90
2020-10-30 14:00:00 17.7 3 Sudoeste 12 Nordeste 0 -- -- 90
2020-10-30 13:00:00 16.8 4 Sudeste 12 Sur 0 -- -- 94
2020-10-30 12:00:00 16.3 4 Este 13 Sudeste 0 -- -- 98
2020-10-30 11:00:00 15.9 5 Este 20 Este 0 -- -- 100
2020-10-30 10:00:00 15.7 5 Sudeste 22 Nordeste 0 -- -- 100
2020-10-30 09:00:00 15.3 5 Este 19 Nordeste 0 -- -- 100
2020-10-30 08:00:00 15.2 4 Sudeste 13 Este 0 -- -- 100
2020-10-30 07:00:00 15.3 5 Este 20 Nordeste 0 -- -- 100
2020-10-30 06:00:00 15.2 5 Sur 14 Nordeste 0 -- -- 100
2020-10-30 05:00:00 15.1 5 Sur 22 Este 0 -- -- 100
2020-10-30 04:00:00 15.3 8 Sudeste 20 Sudeste 0 -- -- 100
2020-10-30 03:00:00 15.2 5 Este 21 Este 0 -- -- 99
2020-10-30 02:00:00 15.3 5 Sudeste 20 Sudeste 0 -- -- 100
2020-10-30 01:00:00 15.4 5 Sudeste 18 Nordeste 0 -- -- 99
2020-10-30 00:00:00 15.3 8 Sudeste 20 Sudeste 0 -- -- 99
2020-10-29 23:00:00 15.3 7 Sur 19 Este 0 -- -- 98
2020-10-29 22:00:00 15.3 7 Sur 16 Nordeste 0 -- -- 97
2020-10-29 21:00:00 15.3 5 Sur 16 Oeste 0 -- -- 96
2020-10-29 20:00:00 15.2 8 Sudeste 19 Nordeste 0 -- -- 95
2020-10-29 19:00:00 15 5 Sudeste 16 Este 0 -- -- 90
2020-10-29 18:00:00 15.7 4 Sur 12 Este 0 -- -- 90
2020-10-29 17:00:00 16.3 4 Sur 12 Sudeste 0 -- -- 84
2020-10-29 16:00:00 16.9 3 Sudoeste 12 Norte 0 -- -- 86
2020-10-29 15:00:00 18.2 5 Sudeste 15 Sudeste 0 -- -- 75
2020-10-29 14:00:00 17.7 4 Sudeste 17 Este 0 -- -- 73
2020-10-29 13:00:00 18.2 5 Sur 13 Sudeste 0 -- -- 76
2020-10-29 12:00:00 17.2 5 Este 18 Sudeste 0 -- -- 81
2020-10-29 11:00:00 16.2 4 Nordeste 16 Este 0 -- -- 84
2020-10-29 10:00:00 15.4 8 Este 18 Este 0 -- -- 90
2020-10-29 09:00:00 14.6 6 Sudeste 17 Sudeste 0 -- -- 91
2020-10-29 08:00:00 14.1 5 Sudeste 16 Este 0 -- -- 93
2020-10-29 07:00:00 14.2 6 Sudoeste 19 Oeste 0 -- -- 96
2020-10-29 06:00:00 13.9 5 Sur 14 Nordeste 0 -- -- 93
2020-10-29 05:00:00 14.3 4 Sudeste 17 Sudeste 0 -- -- 91
2020-10-29 04:00:00 14.1 5 Sur 18 Sudeste 0 -- -- 89
2020-10-29 03:00:00 14.3 8 Sudeste 14 Este 0 -- -- 95
2020-10-29 02:00:00 14 5 Este 12 Nordeste 0 -- -- 95
2020-10-29 01:00:00 14.3 4 Sudeste 20 Este 0 -- -- 94
2020-10-29 00:00:00 14.5 5 Sudeste 19 Este 0 -- -- 96
2020-10-28 23:00:00 14.5 6 Sudeste 19 Este 0 -- -- 93
2020-10-28 22:00:00 14.5 7 Este 17 Este 0 -- -- 95
2020-10-28 21:00:00 14.7 7 Sudeste 17 Sur 0 -- -- 94
2020-10-28 20:00:00 14.5 5 Sudeste 18 Este 0 -- -- 95
2020-10-28 19:00:00 14.6 6 Sur 15 Sudeste 0 -- -- 95
2020-10-28 18:00:00 15 7 Sudeste 17 Nordeste 0 -- -- 90
2020-10-28 17:00:00 15.4 6 Sudeste 16 Sudeste 0 -- -- 88
2020-10-28 16:00:00 15.8 4 Sur 26 Este 0 -- -- 88
2020-10-28 15:00:00 16.3 5 Sudoeste 15 Sudeste 0 -- -- 83
2020-10-28 14:00:00 17 5 Sudeste 17 Este 0 -- -- 80
2020-10-28 13:00:00 17.2 5 Sudeste 19 Nordeste 0 -- -- 76
2020-10-28 12:00:00 16.3 5 Sur 19 Sudeste 0 -- -- 81
2020-10-28 11:00:00 16 6 Sudeste 18 Sudeste 0 -- -- 84
2020-10-28 10:00:00 15.4 6 Sudeste 15 Sudeste 0 -- -- 88
2020-10-28 09:00:00 14.4 5 Sudeste 14 Este 0 -- -- 89
2020-10-28 08:00:00 13.8 5 Sudeste 16 Este 0 -- -- 95
2020-10-28 07:00:00 14 4 Sudeste 15 Sudeste 0 -- -- 99
2020-10-28 06:00:00 14.2 5 Sudeste 16 Nordeste 0 -- -- 100
2020-10-28 05:00:00 14.3 5 Sudeste 16 Este 0.6 -- -- 100
2020-10-28 04:00:00 14.5 4 Sudoeste 13 Sudeste 0.2 -- -- 99
2020-10-28 03:00:00 14.3 6 Sudeste 17 Sudeste 0 -- -- 98
2020-10-28 02:00:00 14.9 4 Sudeste 22 Sudeste 0 -- -- 99
2020-10-28 01:00:00 14.4 4 Este 12 Sudeste 0 -- -- 98
2020-10-28 00:00:00 14.9 3 Este 12 Este 0 -- -- 99
2020-10-27 23:00:00 14.9 5 Sudeste 13 Este 0 -- -- 99
2020-10-27 22:00:00 15.2 5 Este 17 Sudeste 0 -- -- 98
2020-10-27 21:00:00 15.3 5 Sudeste 17 Nordeste 0 -- -- 98
2020-10-27 20:00:00 15.4 4 Sudeste 14 Este 0 -- -- 97
2020-10-27 19:00:00 15.5 6 Sudoeste 18 Este 0 -- -- 95
2020-10-27 18:00:00 16 4 Sur 12 Sudoeste 0 -- -- 91
2020-10-27 17:00:00 17.1 3 Sur 13 Sudeste 0 -- -- 84
2020-10-27 16:00:00 18.2 4 Sur 17 Este 0 -- -- 78
2020-10-27 15:00:00 17.8 8 Este 19 Sudeste 0 -- -- 81
2020-10-27 14:00:00 17.9 6 Sudeste 19 Sudeste 0 -- -- 84
2020-10-27 13:00:00 16.9 8 Sudeste 23 Este 0 -- -- 94
2020-10-27 12:00:00 17 8 Sudeste 23 Este 0 -- -- 95
2020-10-27 11:00:00 17.2 7 Sudeste 17 Este 0 -- -- 92
2020-10-27 10:00:00 16.5 5 Este 14 Este 0 -- -- 94
2020-10-27 09:00:00 15.6 4 Sudeste 16 Sudeste 0 -- -- 99
2020-10-27 08:00:00 14.9 4 Este 15 Noroeste 0 -- -- 100
2020-10-27 07:00:00 14.6 4 Nordeste 13 Nordeste 0 -- -- 100
2020-10-27 06:00:00 15.1 4 Sudeste 14 Este 0 -- -- 100
2020-10-27 05:00:00 14.9 4 Sudeste 22 Sudeste 0 -- -- 99
2020-10-27 04:00:00 14.9 5 Sudeste 13 Nordeste 0 -- -- 99
2020-10-27 03:00:00 15.3 4 Sudeste 13 Sudeste 0 -- -- 99
2020-10-27 02:00:00 15.2 3 Sudeste 11 Sudeste 0 -- -- 99
2020-10-27 01:00:00 15.3 3 Sudeste 10 Sudoeste 0 -- -- 98
2020-10-27 00:00:00 15.1 3 Sur 13 Norte 0 -- -- 98
2020-10-26 23:00:00 14.8 5 Este 15 Nordeste 0 -- -- 97
2020-10-26 22:00:00 15 5 Sudeste 13 Nordeste 0 -- -- 96
2020-10-26 21:00:00 15 5 Este 14 Sur 0 -- -- 95
2020-10-26 20:00:00 15.2 4 Sur 13 Sudeste 0 -- -- 95
2020-10-26 19:00:00 15.3 4 Sudeste 16 Este 0 -- -- 95
2020-10-26 18:00:00 15.6 5 Sur 13 Sudoeste 0 -- -- 92
2020-10-26 17:00:00 16 5 Sudeste 15 Sudeste 0 -- -- 89
2020-10-26 16:00:00 16.8 5 Sudeste 18 Sudeste 0 -- -- 86
2020-10-26 15:00:00 17.3 6 Sudeste 14 Sudeste 0 -- -- 83
2020-10-26 14:00:00 17.8 6 Este 17 Sudeste 0 -- -- 81
2020-10-26 13:00:00 17.3 4 Este 19 Sudeste 0 -- -- 84
2020-10-26 12:00:00 17.2 5 Sudeste 14 Sudeste 0 -- -- 82
2020-10-26 11:00:00 16.1 5 Sudoeste 15 Sudeste 0 -- -- 85
2020-10-26 10:00:00 15.4 6 Sudeste 17 Sudeste 0 -- -- 91
2020-10-26 09:00:00 14.8 5 Sur 18 Sudoeste 0 -- -- 94
2020-10-26 08:00:00 14.3 4 Sur 18 Nordeste 0 -- -- 95
2020-10-26 07:00:00 14.5 6 Sur 18 Este 0 -- -- 95
2020-10-26 06:00:00 14.4 5 Este 16 Sudeste 0 -- -- 94
2020-10-26 05:00:00 14.4 5 Sur 13 Norte 0 -- -- 95
2020-10-26 04:00:00 14.5 4 Este 13 Sudoeste 0 -- -- 95
2020-10-26 03:00:00 14.3 3 Este 13 Este 0 -- -- 92
2020-10-26 02:00:00 14.5 4 Sur 15 Este 0 -- -- 93
2020-10-26 01:00:00 14.6 5 Sudeste 14 Este 0 -- -- 94
2020-10-26 00:00:00 14.5 3 Sudoeste 12 Nordeste 0 -- -- 93
2020-10-25 23:00:00 14.5 5 Sudeste 16 Este 0 -- -- 93
2020-10-25 22:00:00 14.6 5 Sudeste 12 Este 0 -- -- 93
2020-10-25 21:00:00 14.8 5 Sudeste 13 Este 0 -- -- 95
2020-10-25 20:00:00 14.7 4 Sudeste 15 Sudeste 0 -- -- 93
2020-10-25 19:00:00 14.9 4 Sudeste 11 Sudeste 0 -- -- 93
2020-10-25 18:00:00 15.1 4 Sudeste 14 Este 0 -- -- 91
2020-10-25 17:00:00 15.4 4 Sudeste 15 Sudeste 0 -- -- 89
2020-10-25 16:00:00 15.3 4 Sudeste 10 Este 0 -- -- 90
2020-10-25 15:00:00 16 4 Sudoeste 14 Sudoeste 0 -- -- 91
2020-10-25 14:00:00 16.4 3 Sur 14 Sur 0 -- -- 87
2020-10-25 13:00:00 16.1 3 Sudoeste 13 Sudeste 0 -- -- 89
2020-10-25 12:00:00 16.1 4 Sur 14 Este 0 -- -- 93
2020-10-25 11:00:00 16.2 4 Oeste 20 Este 0 -- -- 89
2020-10-25 10:00:00 15.2 4 Sudeste 13 Este 0 -- -- 91
2020-10-25 09:00:00 14.7 4 Sudeste 13 Este 0 -- -- 95
2020-10-25 08:00:00 14.4 4 Sudeste 13 Este 0 -- -- 96
2020-10-25 07:00:00 14.3 5 Sudeste 15 Nordeste 0 -- -- 97
2020-10-25 06:00:00 14.1 4 Sudeste 13 Nordeste 0 -- -- 96
2020-10-25 05:00:00 13.8 4 Sudeste 13 Sudeste 0 -- -- 93
2020-10-25 04:00:00 13.9 4 Este 15 Este 0 -- -- 92
2020-10-25 03:00:00 13.9 4 Sur 12 Nordeste 0 -- -- 90
2020-10-25 02:00:00 14.1 4 Este 15 Nordeste 0 -- -- 91
2020-10-25 01:00:00 14.3 5 Sudeste 15 Nordeste 0 -- -- 87
2020-10-25 00:00:00 14.7 5 Sudeste 16 Este 0 -- -- 88
2020-10-24 23:00:00 15 7 Sudeste 17 Sudeste 0 -- -- 92
2020-10-24 22:00:00 14.9 8 Sudeste 17 Sur 0 -- -- 89
2020-10-24 21:00:00 15.1 5 Sur 13 Sudeste 0 -- -- 92
2020-10-24 20:00:00 15.3 5 Sur 15 Sudeste 0 -- -- 93
2020-10-24 19:00:00 15.6 5 Sudeste 17 Nordeste 0 -- -- 91
2020-10-24 18:00:00 15.8 4 Sur 21 Nordeste 0 -- -- 90
2020-10-24 17:00:00 16.5 6 Sudeste 16 Sudeste 0 -- -- 89
2020-10-24 16:00:00 17.3 6 Sudeste 12 Sur 0 -- -- 81
2020-10-24 15:00:00 17.4 4 Este 19 Sudeste 0 -- -- 76
2020-10-24 14:00:00 16.5 5 Sudeste 17 Sudeste 0 -- -- 88
2020-10-24 13:00:00 16.5 7 Sudoeste 22 Este 0 -- -- 84
2020-10-24 12:00:00 16.5 7 Sudeste 20 Sudeste 0 -- -- 82
2020-10-24 11:00:00 17.1 8 Sudeste 19 Sudeste 0 -- -- 77
2020-10-24 10:00:00 15.9 6 Este 21 Sudeste 0 -- -- 82
2020-10-24 09:00:00 14.2 8 Sudeste 25 Sudeste 0 -- -- 93
2020-10-24 08:00:00 13.9 7 Este 19 Este 0 -- -- 94
2020-10-24 07:00:00 13.7 7 Este 22 Nordeste 0 -- -- 91
2020-10-24 06:00:00 13.4 5 Este 20 Este 0 -- -- 90
2020-10-24 05:00:00 13.4 8 Este 22 Nordeste 0 -- -- 84
2020-10-24 04:00:00 13.6 6 Este 17 Este 0 -- -- 90
2020-10-24 03:00:00 13.4 6 Este 20 Sudeste 0 -- -- 83
2020-10-24 02:00:00 13.4 7 Este 23 Este 0 -- -- 87
2020-10-24 01:00:00 13.7 5 Este 17 Sudeste 0 -- -- 88
2020-10-24 00:00:00 13.7 7 Este 23 Este 0 -- -- 86
2020-10-23 23:00:00 13.8 6 Sudeste 17 Sudeste 0 -- -- 85
2020-10-23 22:00:00 14.4 7 Sudeste 23 Este 0 -- -- 83
2020-10-23 21:00:00 14.7 6 Sudeste 29 Este 0 -- -- 86
2020-10-23 20:00:00 15 11 Sudeste 27 Sudeste 0 -- -- 86
2020-10-23 19:00:00 15.4 6 Sudeste 23 Este 0 -- -- 85
2020-10-23 18:00:00 16 8 Sudeste 21 Sudeste 0 -- -- 81
2020-10-23 17:00:00 17.7 8 Sudeste 15 Este 0 -- -- 72
2020-10-23 16:00:00 18.5 6 Sudeste 18 Sudeste 0 -- -- 67
2020-10-23 15:00:00 17.9 6 Sudeste 23 Sudeste 0 -- -- 70
2020-10-23 14:00:00 17.3 8 Sudeste 26 Sudeste 0 -- -- 77
2020-10-23 13:00:00 18.5 8 Sudeste 21 Sudeste 0 -- -- 69
2020-10-23 12:00:00 17.9 6 Este 21 Este 0 -- -- 71
2020-10-23 11:00:00 16.8 9 Sudeste 20 Sudeste 0 -- -- 77
2020-10-23 10:00:00 15.3 6 Este 23 Este 0 -- -- 81
2020-10-23 09:00:00 14.3 7 Este 18 Nordeste 0 -- -- 89
2020-10-23 08:00:00 13.5 4 Sudeste 23 Este 0 -- -- 93
2020-10-23 07:00:00 13.7 5 Este 15 Sudeste 0 -- -- 93
2020-10-23 06:00:00 13.4 4 Sudeste 13 Este 0 -- -- 94
2020-10-23 05:00:00 13.7 6 Este 12 Nordeste 0 -- -- 93
2020-10-23 04:00:00 13.7 4 Sudoeste 11 Nordeste 0 -- -- 93
2020-10-23 03:00:00 14.1 3 Sudeste 10 Este 0 -- -- 94
2020-10-23 02:00:00 14.1 3 Sur 14 Este 0 -- -- 92
2020-10-23 01:00:00 14 4 Sudeste 14 Este 0 -- -- 89
2020-10-23 00:00:00 14.3 3 Sur 13 Este 0 -- -- 91
2020-10-22 23:00:00 14.3 2 Sur 13 Sudeste 0 -- -- 91
2020-10-22 22:00:00 14.1 4 Este 10 Nordeste 0 -- -- 88
2020-10-22 21:00:00 14.5 3 Sudoeste 13 Nordeste 0 -- -- 88
2020-10-22 20:00:00 14.9 4 Sur 8 Sudoeste 0 -- -- 87
2020-10-22 19:00:00 16 3 Oeste 10 Sudoeste 0 -- -- 81
2020-10-22 18:00:00 16.6 4 Sur 13 Norte 0 -- -- 78
2020-10-22 17:00:00 17.8 4 Nordeste 13 Nordeste 0 -- -- 75
2020-10-22 16:00:00 17.4 4 Sur 16 Este 0 -- -- 81
2020-10-22 15:00:00 17.8 5 Oeste 21 Sudeste 0 -- -- 79
2020-10-22 14:00:00 17.6 5 Sudoeste 19 Este 0 -- -- 85
2020-10-22 13:00:00 17 6 Nordeste 19 Sur 0 -- -- 83
2020-10-22 12:00:00 16.2 7 Norte 20 Nordeste 0 -- -- 84
2020-10-22 11:00:00 15.1 6 Nordeste 28 Norte 0 -- -- 93
2020-10-22 10:00:00 14.5 5 Sur 22 Norte 0 -- -- 92
2020-10-22 09:00:00 13.9 6 Norte 20 Nordeste 0 -- -- 94
2020-10-22 08:00:00 13.7 6 Este 22 Norte 0 -- -- 95
2020-10-22 07:00:00 13.6 5 Nordeste 29 Nordeste 0 -- -- 96
2020-10-22 06:00:00 13.8 7 Noroeste 22 Norte 0 -- -- 98
2020-10-22 05:00:00 13.8 9 Norte 30 Norte 0 -- -- 99
2020-10-22 04:00:00 14.3 7 Norte 28 Nordeste 0 -- -- 99
2020-10-22 03:00:00 14.3 8 Noroeste 21 Norte 1.8 -- -- 100
2020-10-22 02:00:00 14.4 7 Nordeste 28 Norte 0 -- -- 99
2020-10-22 01:00:00 14.4 5 Norte 15 Norte 0 -- -- 99
2020-10-22 00:00:00 14.3 7 Norte 21 Nordeste 12.2 -- -- 99
2020-10-21 23:00:00 14.6 4 Noroeste 24 Norte 10.4 -- -- 99
2020-10-21 22:00:00 14.8 7 Norte 28 Nordeste 6.2 -- -- 99
2020-10-21 21:00:00 14.9 4 Noroeste 22 Norte 0 -- -- 98
2020-10-21 20:00:00 15 6 Norte 20 Norte 0 -- -- 98
2020-10-21 19:00:00 15.5 10 Nordeste 30 Norte 0 -- -- 99
2020-10-21 18:00:00 15.5 4 Norte 25 Norte 1 -- -- 98
2020-10-21 17:00:00 16.2 12 Norte 22 Norte 0 -- -- 97
2020-10-21 16:00:00 16.3 7 Norte 20 Norte 2.8 -- -- 97
2020-10-21 15:00:00 16.4 9 Noroeste 24 Noroeste 11.8 -- -- 95
2020-10-21 14:00:00 18.8 5 Noroeste 26 Noroeste 0 -- -- 82
2020-10-21 13:00:00 17.9 18 Noroeste 34 Noroeste 0 -- -- 80
2020-10-21 12:00:00 17.4 12 Noroeste 21 Oeste 0 -- -- 78
2020-10-21 11:00:00 16.9 9 Norte 39 Norte 0 -- -- 83
2020-10-21 10:00:00 16.2 23 Noroeste 42 Noroeste 0 -- -- 84
2020-10-21 09:00:00 15.8 26 Noroeste 44 Noroeste 0 -- -- 83
2020-10-21 08:00:00 15.7 26 Noroeste 47 Noroeste 0 -- -- 84
2020-10-21 07:00:00 15.6 27 Noroeste 49 Noroeste 0 -- -- 85
2020-10-21 06:00:00 15.6 21 Noroeste 42 Norte 0 -- -- 85
2020-10-21 05:00:00 15.6 19 Noroeste 41 Norte 0 -- -- 87
2020-10-21 04:00:00 15.9 20 Noroeste 49 Noroeste 0 -- -- 88
2020-10-21 03:00:00 15.8 25 Noroeste 44 Noroeste 0 -- -- 86
2020-10-21 02:00:00 15.6 19 Noroeste 32 Oeste 0 -- -- 79
2020-10-21 01:00:00 15.5 21 Noroeste 34 Noroeste 0 -- -- 85
2020-10-21 00:00:00 15.8 19 Noroeste 40 Noroeste 0 -- -- 86
2020-10-20 23:00:00 16.3 24 Noroeste 40 Noroeste 0 -- -- 90
2020-10-20 22:00:00 16.2 18 Noroeste 36 Oeste 0 -- -- 85
2020-10-20 21:00:00 16.9 26 Noroeste 37 Noroeste 0 -- -- 72
2020-10-20 20:00:00 17 22 Noroeste 39 Noroeste 0 -- -- 89
2020-10-20 19:00:00 17.9 19 Noroeste 27 Noroeste 0 -- -- 90
2020-10-20 18:00:00 18.2 18 Noroeste 32 Noroeste 0 -- -- 84
2020-10-20 17:00:00 19 20 Noroeste 44 Noroeste 0 -- -- 79
2020-10-20 16:00:00 19.2 23 Noroeste 56 Noroeste 0 -- -- 77
2020-10-20 15:00:00 19.2 23 Noroeste 64 Noroeste 0 -- -- 86
2020-10-20 14:00:00 18.8 32 Noroeste 71 Noroeste 6.6 -- -- 96
2020-10-20 13:00:00 20.9 39 Noroeste 74 Oeste 0 -- -- 83
2020-10-20 12:00:00 19.9 35 Noroeste 71 Noroeste 0 -- -- 91
2020-10-20 11:00:00 20.2 32 Noroeste 63 Oeste 0 -- -- 83
2020-10-20 10:00:00 20.5 36 Oeste 68 Oeste 0 -- -- 68
2020-10-20 09:00:00 21.2 37 Oeste 63 Oeste 0 -- -- 63
2020-10-20 08:00:00 22 33 Oeste 59 Oeste 0 -- -- 53
2020-10-20 07:00:00 21.9 37 Oeste 67 Oeste 0 -- -- 55
2020-10-20 06:00:00 22.5 42 Oeste 68 Oeste 0 -- -- 50
2020-10-20 05:00:00 22.5 37 Oeste 71 Oeste 0 -- -- 49
2020-10-20 04:00:00 22.2 14 Oeste 50 Oeste 0 -- -- 50
2020-10-20 03:00:00 23 20 Oeste 50 Oeste 0 -- -- 45
2020-10-20 02:00:00 21.9 13 Oeste 32 Sudoeste 0 -- -- 52
2020-10-20 01:00:00 21.9 11 Sur 22 Sudoeste 0 -- -- 54
2020-10-20 00:00:00 21.9 8 Sudoeste 23 Sudoeste 0 -- -- 59
2020-10-19 23:00:00 21.7 7 Oeste 19 Oeste 0 -- -- 65
2020-10-19 22:00:00 21.4 11 Oeste 17 Sudoeste 0 -- -- 68
2020-10-19 21:00:00 21.4 6 Noroeste 20 Noroeste 0 -- -- 70
2020-10-19 20:00:00 21.9 12 Oeste 31 Noroeste 0 -- -- 68
2020-10-19 19:00:00 23.6 12 Noroeste 27 Oeste 0 -- -- 64
2020-10-19 18:00:00 25.7 11 Noroeste 27 Noroeste 0 -- -- 59
2020-10-19 17:00:00 25.4 8 Noroeste 22 Noroeste 0 -- -- 62
2020-10-19 16:00:00 25.2 8 Noroeste 24 Oeste 0 -- -- 64
2020-10-19 15:00:00 24.6 11 Noroeste 28 Oeste 0 -- -- 66
2020-10-19 14:00:00 24.7 11 Noroeste 31 Noroeste 0 -- -- 65
2020-10-19 13:00:00 22.7 20 Noroeste 33 Noroeste 0 -- -- 72
2020-10-19 12:00:00 23.7 10 Oeste 26 Noroeste 0 -- -- 69
2020-10-19 11:00:00 21.9 8 Oeste 29 Oeste 0 -- -- 78
2020-10-19 10:00:00 20.1 12 Oeste 27 Oeste 0 -- -- 82
2020-10-19 09:00:00 19.1 10 Noroeste 21 Oeste 0 -- -- 82
2020-10-19 08:00:00 18.8 12 Noroeste 25 Noroeste 0 -- -- 81
2020-10-19 07:00:00 18.5 12 Noroeste 24 Oeste 0 -- -- 85
2020-10-19 06:00:00 18.7 15 Noroeste 23 Noroeste 0 -- -- 84
2020-10-19 05:00:00 18.9 5 Oeste 23 Oeste 0 -- -- 80
2020-10-19 04:00:00 18.8 12 Oeste 27 Oeste 0 -- -- 82
2020-10-19 03:00:00 19 13 Noroeste 26 Oeste 0 -- -- 84
2020-10-19 02:00:00 19.4 16 Oeste 31 Oeste 0 -- -- 82
2020-10-19 01:00:00 19.6 17 Noroeste 31 Noroeste 0 -- -- 81
2020-10-19 00:00:00 19.5 11 Oeste 27 Noroeste 0 -- -- 80
2020-10-18 23:00:00 19.4 13 Noroeste 19 Noroeste 0 -- -- 79
2020-10-18 22:00:00 19.3 10 Noroeste 17 Noroeste 0 -- -- 76
2020-10-18 21:00:00 19.3 11 Noroeste 17 Noroeste 0 -- -- 74
2020-10-18 20:00:00 19.9 4 Noroeste 10 Oeste 0 -- -- 72
2020-10-18 19:00:00 22.1 4 Noroeste 10 Sur 0 -- -- 65
2020-10-18 18:00:00 23.7 5 Sur 15 Sur 0 -- -- 62
2020-10-18 17:00:00 23 5 Sur 14 Sur 0 -- -- 65
2020-10-18 16:00:00 23 4 Este 14 Sudeste 0 -- -- 65
2020-10-18 15:00:00 23.6 8 Sudeste 19 Sudeste 0 -- -- 63
2020-10-18 14:00:00 21.8 5 Sur 18 Sudeste 0 -- -- 69
2020-10-18 13:00:00 22.9 4 Sur 20 Sudeste 0 -- -- 66
2020-10-18 12:00:00 22.1 9 Sudeste 17 Sudeste 0 -- -- 68
2020-10-18 11:00:00 20 8 Sudeste 15 Sudeste 0 -- -- 75
2020-10-18 10:00:00 18.7 6 Sudeste 9 Sur 0 -- -- 76
2020-10-18 09:00:00 16.2 5 Sur 13 Sudoeste 0 -- -- 86
2020-10-18 08:00:00 15.6 8 Sudoeste 14 Sudoeste 0 -- -- 87
2020-10-18 07:00:00 15.5 5 Noroeste 12 Noroeste 0 -- -- 87
2020-10-18 06:00:00 16 2 Noroeste 11 Oeste 0 -- -- 82
2020-10-18 05:00:00 15.9 6 Sudoeste 11 Sudoeste 0 -- -- 84
2020-10-18 04:00:00 15.2 4 Sudoeste 6 Nordeste 0 -- -- 88
2020-10-18 03:00:00 15.6 5 Noroeste 9 Noroeste 0 -- -- 87
2020-10-18 02:00:00 15.3 3 Sudoeste 10 Sudoeste 0 -- -- 88
2020-10-18 01:00:00 14.8 3 Sudoeste 9 Noroeste 0 -- -- 92
2020-10-18 00:00:00 14.9 7 Sudoeste 10 Sudoeste 0 -- -- 95
2020-10-17 23:00:00 15.1 3 Noroeste 7 Sudoeste 0 -- -- 95
2020-10-17 22:00:00 15.6 3 Sudoeste 6 Sudoeste 0 -- -- 94
2020-10-17 21:00:00 16.2 2 Sudoeste 4 Sudeste 0 -- -- 93
2020-10-17 20:00:00 16.6 3 Sudeste 5 Sur 0 -- -- 90
2020-10-17 19:00:00 17 2 Norte 4 Norte 0 -- -- 90
2020-10-17 18:00:00 17.5 2 Este 14 Este 0 -- -- 88
2020-10-17 17:00:00 17.8 4 Este 12 Nordeste 0 -- -- 89
2020-10-17 16:00:00 18.4 3 Sudoeste 10 Sudoeste 0 -- -- 86
2020-10-17 15:00:00 18.1 4 Nordeste 10 Norte 0 -- -- 87
2020-10-17 14:00:00 18.3 4 Este 12 Nordeste 0 -- -- 87
2020-10-17 13:00:00 18.6 6 Este 17 Sudeste 0 -- -- 80
2020-10-17 12:00:00 19.2 5 Sur 14 Sudeste 0 -- -- 75
2020-10-17 11:00:00 17.9 6 Sudoeste 13 Sudoeste 0 -- -- 84
2020-10-17 10:00:00 15.8 5 Sur 10 Sudeste 0 -- -- 99
2020-10-17 09:00:00 15.4 5 Este 17 Este 0 -- -- 99
2020-10-17 08:00:00 15 6 Este 12 Sudeste 0 -- -- 98
2020-10-17 07:00:00 14.8 3 Este 12 Nordeste 0 -- -- 95
2020-10-17 06:00:00 14.5 3 Norte 10 Noroeste 0 -- -- 90
2020-10-17 05:00:00 14.4 4 Nordeste 9 Norte 0 -- -- 95
2020-10-17 04:00:00 14.8 3 Noroeste 12 Norte 0 -- -- 98
2020-10-17 03:00:00 14.6 3 Norte 12 Noroeste 0 -- -- 98
2020-10-17 02:00:00 15.2 5 Norte 15 Noroeste 0 -- -- 98
2020-10-17 01:00:00 15.5 9 Noroeste 15 Noroeste 0 -- -- 98
2020-10-17 00:00:00 15.9 3 Norte 13 Norte 0 -- -- 98
2020-10-16 23:00:00 16 4 Nordeste 10 Noroeste 0.6 -- -- 98
2020-10-16 22:00:00 16.2 3 Norte 17 Nordeste 1 -- -- 98
2020-10-16 21:00:00 16.3 3 Sur 17 Nordeste 1 -- -- 98
2020-10-16 20:00:00 16.4 6 Este 14 Nordeste 0.2 -- -- 98
2020-10-16 19:00:00 16.6 4 Sudeste 16 Nordeste 0.4 -- -- 97
2020-10-16 18:00:00 16.8 3 Norte 15 Este 1.2 -- -- 96
2020-10-16 17:00:00 17.1 4 Este 15 Nordeste 1 -- -- 96
2020-10-16 16:00:00 18.1 4 Sudeste 11 Sudeste 0 -- -- 92
2020-10-16 15:00:00 19 6 Sudeste 12 Sudeste 0 -- -- 85
2020-10-16 14:00:00 19.5 3 Sur 17 Sur 0 -- -- 82
2020-10-16 13:00:00 21.7 8 Sur 15 Sur 0 -- -- 74
2020-10-16 12:00:00 19.9 6 Norte 14 Noroeste 0 -- -- 80
2020-10-16 11:00:00 19.9 5 Noroeste 10 Noroeste 0 -- -- 77
2020-10-16 10:00:00 17.9 5 Noroeste 15 Noroeste 0 -- -- 88
2020-10-16 09:00:00 16.1 8 Noroeste 17 Noroeste 0 -- -- 96
2020-10-16 08:00:00 15.2 9 Noroeste 15 Noroeste 0 -- -- 94
2020-10-16 07:00:00 16.5 7 Norte 13 Norte 0 -- -- 94
2020-10-16 06:00:00 16 4 Norte 15 Norte 0 -- -- 93
2020-10-16 05:00:00 16.6 9 Norte 15 Norte 0 -- -- 93
2020-10-16 04:00:00 16.7 4 Norte 12 Noroeste 0 -- -- 93
2020-10-16 03:00:00 16.9 6 Norte 14 Noroeste 0 -- -- 93
2020-10-16 02:00:00 17.2 4 Norte 11 Norte 0 -- -- 93
2020-10-16 01:00:00 17.3 5 Norte 13 Norte 0 -- -- 94
2020-10-16 00:00:00 17.4 6 Noroeste 13 Nordeste 0 -- -- 95
2020-10-15 23:00:00 17.6 5 Norte 15 Norte 0 -- -- 94
2020-10-15 22:00:00 16.9 11 Norte 14 Noroeste 0 -- -- 93
2020-10-15 21:00:00 17 9 Norte 18 Noroeste 0 -- -- 84
2020-10-15 20:00:00 17.8 15 Norte 21 Noroeste 0 -- -- 89
2020-10-15 19:00:00 20.2 7 Norte 20 Norte 0 -- -- 78
2020-10-15 18:00:00 22.7 4 Norte 11 Norte 0 -- -- 72
2020-10-15 17:00:00 24.1 4 Sudeste 15 Sudeste 0 -- -- 67
2020-10-15 16:00:00 23.3 5 Noroeste 16 Norte 0 -- -- 68
2020-10-15 15:00:00 23.5 11 Norte 23 Noroeste 0 -- -- 69
2020-10-15 14:00:00 24.5 5 Norte 12 Norte 0 -- -- 64
2020-10-15 13:00:00 25.8 4 Este 19 Este 0 -- -- 51
2020-10-15 12:00:00 26.1 6 Sur 16 Sur 0 -- -- 28
2020-10-15 11:00:00 22.8 3 Este 15 Sudeste 0 -- -- 55
2020-10-15 10:00:00 22 10 Sudeste 14 Sudeste 0 -- -- 36
2020-10-15 09:00:00 20.3 12 Sudoeste 18 Sudoeste 0 -- -- 27
2020-10-15 08:00:00 16.2 8 Sur 14 Sur 0 -- -- 90
2020-10-15 07:00:00 17 7 Este 24 Nordeste 0 -- -- 91
2020-10-15 06:00:00 18.5 11 Norte 17 Norte 0 -- -- 54
2020-10-15 05:00:00 18.8 10 Norte 13 Norte 0 -- -- 47
2020-10-15 04:00:00 18.7 5 Noroeste 7 Noroeste 0 -- -- 47
2020-10-15 03:00:00 19.6 5 Sur 13 Sudoeste 0 -- -- 41
2020-10-15 02:00:00 18.8 5 Sudoeste 13 Sudoeste 0 -- -- 43
2020-10-15 01:00:00 19.5 8 Sudoeste 15 Sudoeste 0 -- -- 37
2020-10-15 00:00:00 18.7 8 Sudoeste 12 Sudoeste 0 -- -- 50
2020-10-14 23:00:00 17.5 3 Noroeste 14 Norte 0 -- -- 92
2020-10-14 22:00:00 17.4 4 Nordeste 12 Nordeste 0 -- -- 93
2020-10-14 21:00:00 17.7 3 Norte 9 Este 0 -- -- 92
2020-10-14 20:00:00 18.1 5 Este 14 Este 0 -- -- 92
2020-10-14 19:00:00 18.8 5 Norte 14 Norte 0 -- -- 89
2020-10-14 18:00:00 20.2 5 Norte 11 Norte 0 -- -- 83
2020-10-14 17:00:00 25.6 3 Sudeste 12 Norte 0 -- -- 65
2020-10-14 16:00:00 26.6 3 Este 10 Nordeste 0 -- -- 60
2020-10-14 15:00:00 -- -- -- -- -- -- -- -- --
2020-10-14 14:00:00 29.5 5 Norte 15 Sudoeste 0 -- -- 36
2020-10-14 13:00:00 29.4 4 Sur 16 Sudeste 0 -- -- 34
2020-10-14 12:00:00 29.5 11 Sur 25 Sur 0 -- -- 25
2020-10-14 11:00:00 27.9 16 Sur 27 Sudeste 0 -- -- 26
2020-10-14 10:00:00 26.3 14 Sur 23 Sur 0 -- -- 27
2020-10-14 09:00:00 24.3 13 Sur 21 Sur 0 -- -- 29
2020-10-14 08:00:00 24.2 21 Sur 31 Sur 0 -- -- 28
2020-10-14 07:00:00 24 19 Sur 31 Sur 0 -- -- 30
2020-10-14 06:00:00 22.4 10 Sur 25 Sur 0 -- -- 36
2020-10-14 05:00:00 23.5 20 Sur 30 Sur 0 -- -- 32
2020-10-14 04:00:00 21.9 14 Sudoeste 18 Sudoeste 0 -- -- 41
2020-10-14 03:00:00 20.1 9 Norte 15 Norte 0 -- -- 60
2020-10-14 02:00:00 20.4 5 Norte 8 Noroeste 0 -- -- 67
2020-10-14 01:00:00 19.7 6 Norte 12 Norte 0 -- -- 63
2020-10-14 00:00:00 19.4 9 Norte 17 Sudoeste 0 -- -- 86
2020-10-13 23:00:00 24.6 8 Sudoeste 14 Nordeste 0 -- -- 32
2020-10-13 22:00:00 25.1 8 Noroeste 12 Noroeste 0 -- -- 28
2020-10-13 21:00:00 24.7 4 Nordeste 14 Nordeste 0 -- -- 28
2020-10-13 20:00:00 24 5 Nordeste 12 Nordeste 0 -- -- 33
2020-10-13 19:00:00 26.1 4 Sudeste 14 Sudeste 0 -- -- 38
2020-10-13 18:00:00 30 7 Sur 26 Sudeste 0 -- -- 26
2020-10-13 17:00:00 30.2 15 Sur 37 Sudeste 0 -- -- 28
2020-10-13 16:00:00 30.3 15 Sur 44 Sur 0 -- -- 27
2020-10-13 15:00:00 30.5 22 Sur 50 Sudeste 0 -- -- 27
2020-10-13 14:00:00 30.4 18 Sur 55 Sudoeste 0 -- -- 24
2020-10-13 13:00:00 30.6 19 Sur 45 Sudeste 0 -- -- 23
2020-10-13 12:00:00 29.3 19 Sur 48 Sudeste 0 -- -- 23
2020-10-13 11:00:00 27.4 21 Sur 46 Sur 0 -- -- 27
2020-10-13 10:00:00 26.4 22 Sur 42 Sur 0 -- -- 31
2020-10-13 09:00:00 27.6 13 Sur 24 Sur 0 -- -- 25
2020-10-13 08:00:00 27.3 11 Sur 24 Este 0 -- -- 24
2020-10-13 07:00:00 27.9 14 Sur 23 Sur 0 -- -- 22
2020-10-13 06:00:00 28.3 14 Sur 30 Sudeste 0 -- -- 22
2020-10-13 05:00:00 28.1 14 Sur 26 Sur 0 -- -- 22
2020-10-13 04:00:00 28.2 14 Sur 27 Sur 0 -- -- 23
2020-10-13 03:00:00 -- -- -- -- -- -- -- -- --
2020-10-13 02:00:00 28.3 10 Sur 19 Sudoeste 0 -- -- 23
2020-10-13 01:00:00 28 13 Sur 23 Sudeste 0 -- -- 23
2020-10-13 00:00:00 -- -- -- -- -- -- -- -- --
2020-10-12 23:00:00 28.3 15 Sur 26 Sur 0 -- -- 22
2020-10-12 22:00:00 28.2 18 Sur 32 Sur 0 -- -- 22
2020-10-12 21:00:00 28.1 22 Sur 34 Sur 0 -- -- 22
2020-10-12 20:00:00 28 19 Sur 40 Sur 0 -- -- 24
2020-10-12 19:00:00 28.8 25 Sur 43 Sudeste 0 -- -- 24
2020-10-12 18:00:00 30.1 24 Sur 43 Sur 0 -- -- 23
2020-10-12 17:00:00 -- -- -- -- -- -- -- -- --
2020-10-12 16:00:00 31.8 25 Sur 42 Sudeste 0 -- -- 22
2020-10-12 15:00:00 32.3 22 Sur 38 Sur 0 -- -- 25
2020-10-12 14:00:00 32.2 21 Sudeste 33 Sur 0 -- -- 26
2020-10-12 13:00:00 30.3 26 Sur 40 Sudeste 0 -- -- 27
2020-10-12 12:00:00 27.3 20 Sur 32 Sur 0 -- -- 37
2020-10-12 11:00:00 24.9 8 Sur 16 Sudoeste 0 -- -- 71
2020-10-12 10:00:00 20.3 3 Sudeste 16 Sudoeste 0 -- -- 88
2020-10-12 09:00:00 18.9 11 Sudoeste 16 Sudoeste 0 -- -- 68
2020-10-12 08:00:00 16.5 3 Este 15 Nordeste 0 -- -- 100
2020-10-12 07:00:00 16.1 3 Sudeste 7 Nordeste 0 -- -- 100
2020-10-12 06:00:00 16.8 2 Este 18 Norte 0 -- -- 100
2020-10-12 05:00:00 16.7 2 Este 10 Nordeste 0 -- -- 100
2020-10-12 04:00:00 16.7 4 Nordeste 9 Nordeste 0 -- -- 100
2020-10-12 03:00:00 -- -- -- -- -- -- -- -- --
2020-10-12 02:00:00 16.8 2 Sur 12 Sudeste 0 -- -- 100
2020-10-12 01:00:00 16.7 5 Este 14 Este 0 -- -- 100
2020-10-12 00:00:00 16.7 2 Sur 13 Este 0 -- -- 100
2020-10-11 23:00:00 17 4 Este 18 Sudeste 0 -- -- 100
2020-10-11 22:00:00 17 7 Este 17 Este 0 -- -- 100
2020-10-11 21:00:00 17.2 4 Sudeste 16 Sudeste 0 -- -- 100
2020-10-11 20:00:00 -- -- -- -- -- -- -- -- --
2020-10-11 19:00:00 -- -- -- -- -- -- -- -- --
2020-10-11 18:00:00 17.4 8 Este 17 Este 0 -- -- 99
2020-10-11 17:00:00 17.6 7 Este 15 Sudeste 0 -- -- 98
2020-10-11 16:00:00 17.9 6 Sudeste 14 Nordeste 0 -- -- 97
2020-10-11 15:00:00 17.9 3 Sudeste 11 Sudeste 0 -- -- 97
2020-10-11 14:00:00 17.9 4 Sudeste 20 Sudeste 0 -- -- 98
2020-10-11 13:00:00 17.5 5 Este 17 Nordeste 0 -- -- 100
2020-10-11 12:00:00 17.1 6 Sudeste 23 Nordeste 0 -- -- 100
2020-10-11 11:00:00 16.8 5 Sudeste 14 Sudeste 0 -- -- 100
2020-10-11 10:00:00 16.4 4 Sudeste 13 Este 0 -- -- 100
2020-10-11 09:00:00 16.2 4 Nordeste 14 Este 0 -- -- 100
2020-10-11 08:00:00 16 4 Sudeste 12 Este 0 -- -- 100
2020-10-11 07:00:00 16.2 4 Sudeste 19 Este 0 -- -- 100
2020-10-11 06:00:00 16.5 4 Sur 22 Este 0 -- -- 100
2020-10-11 05:00:00 16.3 5 Sudeste 21 Nordeste 0 -- -- 100
2020-10-11 04:00:00 16.3 6 Sudeste 25 Este 0 -- -- 100
2020-10-11 03:00:00 16.2 5 Sudoeste 26 Nordeste 0 -- -- 100
2020-10-11 02:00:00 16.5 5 Este 18 Nordeste 0 -- -- 100
2020-10-11 01:00:00 16.7 6 Sur 17 Este 0 -- -- 100
2020-10-11 00:00:00 16.7 6 Sur 17 Sudeste 0 -- -- 100
2020-10-10 23:00:00 16.4 6 Sudeste 22 Nordeste 0 -- -- 100
2020-10-10 22:00:00 16.5 6 Este 21 Nordeste 0 -- -- 100
2020-10-10 21:00:00 16.4 4 Sudeste 17 Nordeste 0 -- -- 100
2020-10-10 20:00:00 16.6 9 Este 27 Nordeste 0 -- -- 99
2020-10-10 19:00:00 16.8 9 Este 19 Sudeste 0 -- -- 99
2020-10-10 18:00:00 17.2 5 Sudeste 15 Este 0 -- -- 97
2020-10-10 17:00:00 17.6 4 Sudeste 14 Este 0 -- -- 92
2020-10-10 16:00:00 17.7 4 Sur 16 Nordeste 0 -- -- 94
2020-10-10 15:00:00 18.2 7 Sudeste 16 Este 0 -- -- 91
2020-10-10 14:00:00 18.4 4 Sur 16 Nordeste 0 -- -- 89
2020-10-10 13:00:00 17.9 6 Este 19 Este 0 -- -- 94
2020-10-10 12:00:00 18.3 6 Sudeste 15 Este 0 -- -- 89
2020-10-10 11:00:00 17 4 Este 13 Nordeste 0 -- -- 95
2020-10-10 10:00:00 16.6 7 Este 15 Este 0 -- -- 97
2020-10-10 09:00:00 16.2 3 Norte 15 Sudeste 0 -- -- 100
2020-10-10 08:00:00 15.9 4 Sudeste 18 Sudeste 0 -- -- 100
2020-10-10 07:00:00 16.2 8 Este 26 Sudeste 0 -- -- 100
2020-10-10 06:00:00 16.4 5 Sur 23 Nordeste 0 -- -- 100
2020-10-10 05:00:00 16.2 5 Este 22 Este 0 -- -- 99
2020-10-10 04:00:00 16.4 6 Sudeste 20 Sudeste 0 -- -- 100
2020-10-10 03:00:00 16.3 5 Este 16 Nordeste 0 -- -- 99
2020-10-10 02:00:00 16.5 5 Este 16 Este 0 -- -- 99
2020-10-10 01:00:00 16.4 5 Este 19 Sudeste 0 -- -- 99
2020-10-10 00:00:00 16.6 7 Sudeste 22 Este 0 -- -- 99
2020-10-09 23:00:00 16.8 5 Sudeste 24 Este 0 -- -- 98
2020-10-09 22:00:00 16.8 8 Sudeste 18 Nordeste 0 -- -- 97
2020-10-09 21:00:00 17 4 Sur 14 Sudeste 0 -- -- 96
2020-10-09 20:00:00 17.3 4 Sur 14 Este 0 -- -- 93
2020-10-09 19:00:00 18.3 4 Sudeste 13 Noroeste 0 -- -- 88
2020-10-09 18:00:00 20.5 4 Norte 13 Sudeste 0 -- -- 77
2020-10-09 17:00:00 20.3 5 Sudeste 20 Este 0 -- -- 82
2020-10-09 16:00:00 19.1 5 Noroeste 19 Este 0 -- -- 89
2020-10-09 15:00:00 19.4 4 Norte 15 Este 0 -- -- 87
2020-10-09 14:00:00 19.2 5 Nordeste 19 Nordeste 0 -- -- 87
2020-10-09 13:00:00 18 6 Sudeste 19 Norte 0 -- -- 96
2020-10-09 12:00:00 18.5 3 Sur 20 Sudeste 0 -- -- 95
2020-10-09 11:00:00 18.1 5 Sudeste 20 Sudeste 0 -- -- 99
2020-10-09 10:00:00 17.3 3 Este 20 Este 0 -- -- 99
2020-10-09 09:00:00 17.1 6 Nordeste 16 Este 0.2 -- -- 99
2020-10-09 08:00:00 17.2 3 Sur 13 Norte 0 -- -- 99
2020-10-09 07:00:00 17.1 4 Nordeste 13 Nordeste 0 -- -- 99
2020-10-09 06:00:00 17.4 4 Sudeste 8 Este 0 -- -- 99
2020-10-09 05:00:00 17.2 2 Este 10 Nordeste 0 -- -- 99
2020-10-09 04:00:00 17.5 2 Este 14 Sudeste 0 -- -- 98
2020-10-09 03:00:00 17 3 Sudoeste 9 Sudoeste 0 -- -- 96
2020-10-09 02:00:00 16.8 4 Sudoeste 10 Sudoeste 0 -- -- 96
2020-10-09 01:00:00 17.2 3 Sur 5 Sudoeste 0 -- -- 97
2020-10-09 00:00:00 17.6 2 Nordeste 7 Norte 0 -- -- 98
2020-10-08 23:00:00 17.8 2 Este 9 Nordeste 0 -- -- 98
2020-10-08 22:00:00 17.7 2 Sudoeste 11 Nordeste 0 -- -- 97
2020-10-08 21:00:00 18 4 Noroeste 6 Norte 0 -- -- 96
2020-10-08 20:00:00 18.6 0 Calma 6 Sudoeste 0 -- -- 95
2020-10-08 19:00:00 19.1 3 Norte 11 Norte 0 -- -- 93
2020-10-08 18:00:00 20.8 3 Este 11 Sudeste 0 -- -- 85
2020-10-08 17:00:00 24 5 Sur 15 Sudeste 0 -- -- 73
2020-10-08 16:00:00 24.9 5 Sur 15 Sur 0 -- -- 69
2020-10-08 15:00:00 24.9 7 Sur 17 Sudeste 0 -- -- 68
2020-10-08 14:00:00 25 8 Sur 17 Sudeste 0 -- -- 66
2020-10-08 13:00:00 24.4 9 Sur 17 Sur 0 -- -- 62
2020-10-08 12:00:00 24.4 8 Sudeste 17 Sudeste 0 -- -- 47
2020-10-08 11:00:00 22.8 8 Sur 12 Sur 0 -- -- 37
2020-10-08 10:00:00 20.7 4 Sudeste 10 Nordeste 0 -- -- 47
2020-10-08 09:00:00 18.3 5 Sudoeste 12 Sudoeste 0 -- -- 55
2020-10-08 08:00:00 17.5 4 Sudoeste 12 Sudoeste 0 -- -- 57
2020-10-08 07:00:00 18 2 Nordeste 5 Sudoeste 0 -- -- 47
2020-10-08 06:00:00 18.3 5 Sudoeste 9 Sudoeste 0 -- -- 44
2020-10-08 05:00:00 18.6 6 Sudoeste 8 Sudoeste 0 -- -- 52
2020-10-08 04:00:00 18.6 0 Calma 9 Sudoeste 0 -- -- 28
2020-10-08 03:00:00 18.7 2 Sudoeste 7 Sudoeste 0 -- -- 37
2020-10-08 02:00:00 19.3 3 Sur 9 Sudoeste 0 -- -- 37
2020-10-08 01:00:00 18.8 4 Nordeste 11 Nordeste 0 -- -- 29
2020-10-08 00:00:00 18.1 4 Este 7 Este 0 -- -- 52
2020-10-07 23:00:00 18.9 2 Sudeste 6 Norte 0 -- -- 85
2020-10-07 22:00:00 19.7 4 Norte 6 Norte 0 -- -- 83
2020-10-07 21:00:00 20.3 5 Norte 6 Noroeste 0 -- -- 78
2020-10-07 20:00:00 21.6 4 Noroeste 6 Noroeste 0 -- -- 77
2020-10-07 19:00:00 23.5 2 Este 9 Norte 0 -- -- 75
2020-10-07 18:00:00 24 4 Norte 13 Nordeste 0 -- -- 72
2020-10-07 17:00:00 25.3 4 Oeste 12 Este 0 -- -- 66
2020-10-07 16:00:00 24 4 Este 14 Sur 0 -- -- 76
2020-10-07 15:00:00 26.1 8 Sur 19 Sur 0 -- -- 71
2020-10-07 14:00:00 25.7 6 Sur 14 Sur 0 -- -- 69
2020-10-07 13:00:00 24.8 6 Sur 15 Sudeste 0 -- -- 73
2020-10-07 12:00:00 23.9 7 Sur 14 Sudeste 0 -- -- 77
2020-10-07 11:00:00 22.6 5 Sur 12 Sur 0 -- -- 76
2020-10-07 10:00:00 20.6 4 Sudoeste 7 Sudoeste 0 -- -- 86
2020-10-07 09:00:00 18.3 4 Oeste 8 Este 0 -- -- 93
2020-10-07 08:00:00 18.3 3 Sudoeste 8 Sudoeste 0 -- -- 91
2020-10-07 07:00:00 18 5 Sudoeste 8 Sudoeste 0 -- -- 93
2020-10-07 06:00:00 17.7 6 Noroeste 13 Norte 0 -- -- 93
2020-10-07 05:00:00 17.6 10 Norte 15 Noroeste 0 -- -- 93
2020-10-07 04:00:00 17.6 12 Norte 16 Norte 0 -- -- 93
2020-10-07 03:00:00 17.4 8 Noroeste 12 Noroeste 0 -- -- 94
2020-10-07 02:00:00 17.6 11 Noroeste 13 Noroeste 0 -- -- 94
2020-10-07 01:00:00 18.8 5 Norte 9 Sudoeste 0 -- -- 90
2020-10-07 00:00:00 18.6 5 Sudoeste 9 Sudoeste 0 -- -- 96
2020-10-06 23:00:00 17.8 4 Norte 8 Norte 0.2 -- -- 100
2020-10-06 22:00:00 17.3 7 Norte 11 Norte 0 -- -- 100
2020-10-06 21:00:00 17.1 3 Norte 10 Norte 0 -- -- 100
2020-10-06 20:00:00 17 4 Norte 9 Norte 0 -- -- 100
2020-10-06 19:00:00 17 4 Nordeste 9 Norte 0 -- -- 100
2020-10-06 18:00:00 17.4 3 Sudeste 9 Sudeste 0 -- -- 100
2020-10-06 17:00:00 17.3 3 Nordeste 10 Nordeste 0 -- -- 100
2020-10-06 16:00:00 17 4 Norte 9 Norte 0 -- -- 100
2020-10-06 15:00:00 16.6 2 Este 10 Sudeste 0.2 -- -- 100
2020-10-06 14:00:00 16.6 5 Nordeste 12 Nordeste 0.4 -- -- 100
2020-10-06 13:00:00 16.3 2 Sudeste 10 Nordeste 1.4 -- -- 100
2020-10-06 12:00:00 16.2 3 Sur 15 Sudeste 2.4 -- -- 100
2020-10-06 11:00:00 15.9 8 Este 19 Este 3 -- -- 100
2020-10-06 10:00:00 16.4 7 Sudeste 21 Este 2.8 -- -- 100
2020-10-06 09:00:00 16.4 5 Sudeste 18 Este 2 -- -- 100
2020-10-06 08:00:00 16.7 5 Sudeste 22 Nordeste 3 -- -- 100
2020-10-06 07:00:00 16.9 6 Este 23 Sudeste 2 -- -- 100
2020-10-06 06:00:00 16.8 8 Este 19 Este 1.2 -- -- 100
2020-10-06 05:00:00 17.1 6 Nordeste 20 Nordeste 0.2 -- -- 100
2020-10-06 04:00:00 16.4 6 Sudeste 18 Norte 0 -- -- 100
2020-10-06 03:00:00 16.4 2 Norte 20 Noroeste 0 -- -- 100
2020-10-06 02:00:00 16.3 13 Noroeste 19 Noroeste 0 -- -- 100
2020-10-06 01:00:00 16.3 3 Este 15 Sudeste 0 -- -- 100
2020-10-06 00:00:00 16.6 4 Sudeste 17 Oeste 0 -- -- 100
2020-10-05 23:00:00 16.7 7 Nordeste 19 Norte 0 -- -- 100
2020-10-05 22:00:00 17 5 Sur 19 Este 0.2 -- -- 100
2020-10-05 21:00:00 17.3 6 Sur 24 Este 0 -- -- 100
2020-10-05 20:00:00 17.4 9 Sudeste 21 Sudeste 0 -- -- 100
2020-10-05 19:00:00 17.4 5 Sur 23 Sudeste 0 -- -- 100
2020-10-05 18:00:00 17.5 6 Sur 21 Este 0 -- -- 99
2020-10-05 17:00:00 17.6 5 Sudeste 24 Este 0 -- -- 98
2020-10-05 16:00:00 18.3 4 Sudoeste 15 Este 0 -- -- 95
2020-10-05 15:00:00 18.9 4 Sudeste 16 Sudeste 0 -- -- 91
2020-10-05 14:00:00 20.6 5 Nordeste 16 Este 0 -- -- 80
2020-10-05 13:00:00 19.6 5 Norte 18 Este 0 -- -- 90
2020-10-05 12:00:00 18.8 8 Este 26 Sudeste 0 -- -- 99
2020-10-05 11:00:00 17.9 6 Sudeste 22 Sudeste 0 -- -- 100
2020-10-05 10:00:00 17.2 8 Sudeste 19 Sudeste 0 -- -- 100
2020-10-05 09:00:00 16.4 6 Este 15 Este 0 -- -- 100
2020-10-05 08:00:00 16.4 6 Este 21 Sudeste 0 -- -- 100
2020-10-05 07:00:00 16.4 4 Sur 14 Sudeste 0 -- -- 100
2020-10-05 06:00:00 16.3 5 Sudeste 19 Nordeste 0 -- -- 100
2020-10-05 05:00:00 16.4 8 Este 24 Este 0 -- -- 100
2020-10-05 04:00:00 16.5 9 Este 26 Nordeste 0 -- -- 100
2020-10-05 03:00:00 16.6 6 Sur 21 Sudeste 0 -- -- 100
2020-10-05 02:00:00 16.6 9 Sudeste 19 Nordeste 0 -- -- 100
2020-10-05 01:00:00 16.4 5 Sur 18 Este 0 -- -- 100
2020-10-05 00:00:00 16.4 6 Sudeste 24 Este 0 -- -- 100
2020-10-04 23:00:00 16.4 4 Sur 16 Este 0 -- -- 100
2020-10-04 22:00:00 15.9 6 Este 19 Este 0 -- -- 100
2020-10-04 21:00:00 16.1 6 Sudeste 19 Sudeste 0 -- -- 100
2020-10-04 20:00:00 16.3 7 Sudeste 24 Noroeste 0 -- -- 100
2020-10-04 19:00:00 16.6 8 Sur 17 Sudeste 0 -- -- 100
2020-10-04 18:00:00 16.6 4 Sur 19 Nordeste 0 -- -- 100
2020-10-04 17:00:00 16.9 6 Sudeste 19 Este 0 -- -- 100
2020-10-04 16:00:00 17.5 7 Sudeste 19 Este 0 -- -- 100
2020-10-04 15:00:00 17.2 10 Sudeste 27 Sudeste 0 -- -- 100
2020-10-04 14:00:00 17.6 7 Sudeste 19 Sur 0 -- -- 100
2020-10-04 13:00:00 17.6 12 Este 24 Sudeste 0 -- -- 100
2020-10-04 12:00:00 17.8 9 Sudeste 25 Este 0 -- -- 100
2020-10-04 11:00:00 17.5 6 Sudeste 27 Sudeste 0 -- -- 100
2020-10-04 10:00:00 17.4 10 Sudeste 30 Este 0.8 -- -- 100
2020-10-04 09:00:00 17 9 Este 21 Sudeste 0.4 -- -- 100
2020-10-04 08:00:00 17.4 9 Sudeste 24 Este 0.4 -- -- 100
2020-10-04 07:00:00 17.3 8 Sur 26 Este 0 -- -- 100
2020-10-04 06:00:00 17.4 9 Sudeste 23 Nordeste 0.2 -- -- 100
2020-10-04 05:00:00 17.3 9 Sudeste 24 Este 0 -- -- 100
2020-10-04 04:00:00 17 8 Sudeste 20 Este 0 -- -- 100
2020-10-04 03:00:00 16.8 5 Sur 26 Este 0 -- -- 100
2020-10-04 02:00:00 17.1 12 Este 27 Sudeste 0 -- -- 100
2020-10-04 01:00:00 17.1 10 Este 23 Nordeste 0.4 -- -- 100
2020-10-04 00:00:00 17.1 9 Sudeste 22 Sudeste 0 -- -- 100
2020-10-03 23:00:00 17.2 8 Este 26 Sudeste 1 -- -- 100
2020-10-03 22:00:00 17.1 9 Este 22 Este 0 -- -- 100
2020-10-03 21:00:00 17.1 10 Este 23 Sudeste 0 -- -- 100
2020-10-03 20:00:00 17.3 9 Este 20 Nordeste 0.2 -- -- 100
2020-10-03 19:00:00 17.4 7 Sudeste 22 Noroeste 0 -- -- 100
2020-10-03 18:00:00 17.5 6 Sur 20 Este 0 -- -- 100
2020-10-03 17:00:00 17.7 6 Sur 19 Este 0 -- -- 99
2020-10-03 16:00:00 17.3 6 Este 24 Este 0 -- -- 99
2020-10-03 15:00:00 17.8 9 Este 23 Nordeste 0 -- -- 97
2020-10-03 14:00:00 17.6 5 Este 20 Este 0.4 -- -- 99
2020-10-03 13:00:00 17.2 8 Sudeste 18 Sudeste 0 -- -- 98
2020-10-03 12:00:00 16.8 7 Sudeste 19 Sudeste 0 -- -- 99
2020-10-03 11:00:00 16.7 5 Sudeste 13 Sudeste 0 -- -- 99
2020-10-03 10:00:00 16.2 4 Sudoeste 23 Sudoeste 0.2 -- -- 100
2020-10-03 09:00:00 -- -- -- -- -- -- -- -- --
2020-10-03 08:00:00 15.9 6 Sudeste 17 Sur 0 -- -- 95
2020-10-03 07:00:00 15.9 7 Sur 18 Sudeste 0 -- -- 96
2020-10-03 06:00:00 15.8 6 Sur 19 Sudeste 0 -- -- 96
2020-10-03 05:00:00 15.4 8 Sur 23 Este 0 -- -- 99
2020-10-03 04:00:00 16 6 Sudeste 17 Sudeste 0 -- -- 100
2020-10-03 03:00:00 15.3 8 Este 19 Nordeste 0 -- -- 99
2020-10-03 02:00:00 15.9 6 Sudeste 21 Sudeste 0 -- -- 100
2020-10-03 01:00:00 16.2 11 Sudeste 28 Sudeste 0 -- -- 100
2020-10-03 00:00:00 16.3 8 Sudeste 26 Este 0 -- -- 100
2020-10-02 23:00:00 16.6 8 Este 25 Este 0 -- -- 100
2020-10-02 22:00:00 16.4 5 Sur 27 Este 0 -- -- 100
2020-10-02 21:00:00 16.4 7 Nordeste 28 Nordeste 0 -- -- 100
2020-10-02 20:00:00 16.7 6 Sur 15 Oeste 0.2 -- -- 100
2020-10-02 19:00:00 16.4 5 Sudeste 17 Sudeste 0.2 -- -- 98
2020-10-02 18:00:00 16.8 6 Sudeste 23 Sudeste 0 -- -- 97
2020-10-02 17:00:00 17.3 6 Sur 22 Este 0 -- -- 95
2020-10-02 16:00:00 18.9 6 Sur 21 Nordeste 0 -- -- 88
2020-10-02 15:00:00 20.3 6 Este 21 Este 0 -- -- 77
2020-10-02 14:00:00 21 6 Este 21 Sudeste 0 -- -- 73
2020-10-02 13:00:00 19.8 8 Este 21 Este 0 -- -- 79
2020-10-02 12:00:00 16.8 8 Sudeste 23 Nordeste 0 -- -- 94
2020-10-02 11:00:00 16.4 6 Este 19 Este 0 -- -- 94
2020-10-02 10:00:00 16.1 7 Sudeste 19 Este 0 -- -- 88
2020-10-02 09:00:00 15.5 5 Sudeste 22 Este 0 -- -- 88
2020-10-02 08:00:00 15.1 7 Sudeste 21 Sudeste 0 -- -- 88
2020-10-02 07:00:00 15 8 Sudeste 20 Sur 0 -- -- 94
2020-10-02 06:00:00 15.1 7 Sudeste 23 Sudeste 0 -- -- 98
2020-10-02 05:00:00 15.3 8 Sudeste 23 Sudeste 0 -- -- 99
2020-10-02 04:00:00 15.3 6 Sudeste 17 Sur 0 -- -- 100
2020-10-02 03:00:00 15.4 8 Sudeste 22 Sudeste 0 -- -- 100
2020-10-02 02:00:00 15.9 6 Este 26 Sudeste 0.4 -- -- 100
2020-10-02 01:00:00 16.5 9 Sudeste 22 Sudeste 0.6 -- -- 99
2020-10-02 00:00:00 16.6 6 Sudeste 19 Nordeste 0 -- -- 100
2020-10-01 23:00:00 16.6 8 Sudeste 23 Sudeste 0 -- -- 99
2020-10-01 22:00:00 16.6 6 Sudeste 21 Sudeste 0 -- -- 99
2020-10-01 21:00:00 16.8 9 Este 23 Este 0 -- -- 98
2020-10-01 20:00:00 16.7 6 Sudeste 18 Sudeste 0 -- -- 95
2020-10-01 19:00:00 17.3 8 Sudeste 24 Nordeste 0 -- -- 95
2020-10-01 18:00:00 17.6 8 Sudeste 24 Sudeste 0 -- -- 93
2020-10-01 17:00:00 18.1 6 Sudeste 20 Sudeste 0 -- -- 89
2020-10-01 16:00:00 19.8 5 Sudeste 17 Nordeste 0 -- -- 82
2020-10-01 15:00:00 19.1 6 Sudeste 20 Sudeste 0 -- -- 83
2020-10-01 14:00:00 19.2 6 Sudeste 21 Este 0 -- -- 86
2020-10-01 13:00:00 18 7 Sudeste 20 Este 0 -- -- 91
2020-10-01 12:00:00 17.6 6 Sudeste 20 Sudeste 0 -- -- 97
2020-10-01 11:00:00 16.7 7 Este 20 Nordeste 0 -- -- 100
2020-10-01 10:00:00 16.2 7 Sudeste 20 Este 0 -- -- 100
2020-10-01 09:00:00 -- -- -- -- -- -- -- -- --
2020-10-01 08:00:00 15.8 6 Este 17 Este 0 -- -- 100
2020-10-01 07:00:00 16.1 5 Sudeste 22 Sudeste 0 -- -- 100
2020-10-01 06:00:00 16.3 6 Sudeste 18 Sudeste 0 -- -- 100
2020-10-01 05:00:00 16.3 7 Este 21 Sudeste 0 -- -- 100
2020-10-01 04:00:00 15.8 6 Sudeste 21 Nordeste 0 -- -- 99
2020-10-01 03:00:00 16.2 5 Sudeste 13 Nordeste 0 -- -- 99
2020-10-01 02:00:00 16.3 4 Sudeste 16 Este 0 -- -- 98
2020-10-01 01:00:00 16.4 5 Este 16 Sudeste 0 -- -- 98
2020-10-01 00:00:00 16.4 6 Sudeste 14 Sur 0 -- -- 97